sensor_id;sensor_type;location;lat;lon;timestamp;P1;P2;P0
73623;PMS5003;61921;53.226;-1.296;2022-12-29T00:01:49;8;3;
73623;PMS5003;61921;53.226;-1.296;2022-12-29T00:04:15;7;3;
73623;PMS5003;61921;53.226;-1.296;2022-12-29T00:06:40;9;8;
73623;PMS5003;61921;53.226;-1.296;2022-12-29T00:09:05;3;3;
73623;PMS5003;61921;53.226;-1.296;2022-12-29T00:11:31;8;3;
73623;PMS5003;61921;53.226;-1.296;2022-12-29T00:13:56;5;5;
73623;PMS5003;61921;53.226;-1.296;2022-12-29T00:16:21;4;4;
73623;PMS5003;61921;53.226;-1.296;2022-12-29T00:18:47;5;3;
73623;PMS5003;61921;53.226;-1.296;2022-12-29T00:21:13;9;4;
73623;PMS5003;61921;53.226;-1.296;2022-12-29T00:23:37;9;5;
73623;PMS5003;61921;53.226;-1.296;2022-12-29T00:26:03;8;4;
73623;PMS5003;61921;53.226;-1.296;2022-12-29T00:28:28;9;5;
73623;PMS5003;61921;53.226;-1.296;2022-12-29T00:30:58;8;5;
73623;PMS5003;61921;53.226;-1.296;2022-12-29T00:33:21;3;2;
73623;PMS5003;61921;53.226;-1.296;2022-12-29T00:35:45;5;2;
73623;PMS5003;61921;53.226;-1.296;2022-12-29T00:38:10;6;4;
73623;PMS5003;61921;53.226;-1.296;2022-12-29T00:40:35;4;3;
73623;PMS5003;61921;53.226;-1.296;2022-12-29T00:43:00;6;2;
73623;PMS5003;61921;53.226;-1.296;2022-12-29T00:45:26;10;5;
73623;PMS5003;61921;53.226;-1.296;2022-12-29T00:47:51;3;3;
73623;PMS5003;61921;53.226;-1.296;2022-12-29T00:50:17;2;2;
73623;PMS5003;61921;53.226;-1.296;2022-12-29T00:52:42;2;2;
73623;PMS5003;61921;53.226;-1.296;2022-12-29T00:55:08;6;2;
73623;PMS5003;61921;53.226;-1.296;2022-12-29T00:57:33;6;4;
73623;PMS5003;61921;53.226;-1.296;2022-12-29T00:59:58;7;4;
73623;PMS5003;61921;53.226;-1.296;2022-12-29T01:02:23;7;6;
73623;PMS5003;61921;53.226;-1.296;2022-12-29T01:04:48;3;3;
73623;PMS5003;61921;53.226;-1.296;2022-12-29T01:07:14;4;4;
73623;PMS5003;61921;53.226;-1.296;2022-12-29T01:09:39;5;3;
73623;PMS5003;61921;53.226;-1.296;2022-12-29T01:12:05;3;3;
73623;PMS5003;61921;53.226;-1.296;2022-12-29T01:14:31;5;3;
73623;PMS5003;61921;53.226;-1.296;2022-12-29T01:16:56;4;2;
73623;PMS5003;61921;53.226;-1.296;2022-12-29T01:19:22;5;2;
73623;PMS5003;61921;53.226;-1.296;2022-12-29T01:21:47;2;2;
73623;PMS5003;61921;53.226;-1.296;2022-12-29T01:24:12;6;3;
73623;PMS5003;61921;53.226;-1.296;2022-12-29T01:26:37;6;3;
73623;PMS5003;61921;53.226;-1.296;2022-12-29T01:29:03;6;2;
73623;PMS5003;61921;53.226;-1.296;2022-12-29T01:31:28;8;2;
73623;PMS5003;61921;53.226;-1.296;2022-12-29T01:33:53;5;3;
73623;PMS5003;61921;53.226;-1.296;2022-12-29T01:36:19;6;3;
73623;PMS5003;61921;53.226;-1.296;2022-12-29T01:38:44;4;2;
73623;PMS5003;61921;53.226;-1.296;2022-12-29T01:41:11;4;3;
73623;PMS5003;61921;53.226;-1.296;2022-12-29T01:43:39;3;3;
73623;PMS5003;61921;53.226;-1.296;2022-12-29T01:46:01;6;2;
73623;PMS5003;61921;53.226;-1.296;2022-12-29T01:48:26;2;1;
73623;PMS5003;61921;53.226;-1.296;2022-12-29T01:50:52;4;2;
73623;PMS5003;61921;53.226;-1.296;2022-12-29T01:53:17;3;2;
73623;PMS5003;61921;53.226;-1.296;2022-12-29T01:55:42;7;2;
73623;PMS5003;61921;53.226;-1.296;2022-12-29T01:58:07;9;1;
73623;PMS5003;61921;53.226;-1.296;2022-12-29T02:00:33;4;2;
73623;PMS5003;61921;53.226;-1.296;2022-12-29T02:02:58;9;6;
73623;PMS5003;61921;53.226;-1.296;2022-12-29T02:05:25;5;2;
73623;PMS5003;61921;53.226;-1.296;2022-12-29T02:07:50;7;4;
73623;PMS5003;61921;53.226;-1.296;2022-12-29T02:10:15;7;4;
73623;PMS5003;61921;53.226;-1.296;2022-12-29T02:12:40;3;2;
73623;PMS5003;61921;53.226;-1.296;2022-12-29T02:15:06;5;2;
73623;PMS5003;61921;53.226;-1.296;2022-12-29T02:17:36;7;3;
73623;PMS5003;61921;53.226;-1.296;2022-12-29T02:22:24;2;2;
73623;PMS5003;61921;53.226;-1.296;2022-12-29T02:25:00;8;5;
73623;PMS5003;61921;53.226;-1.296;2022-12-29T02:32:05;3;3;
73623;PMS5003;61921;53.226;-1.296;2022-12-29T02:34:32;6;2;
73623;PMS5003;61921;53.226;-1.296;2022-12-29T02:36:56;5;3;
73623;PMS5003;61921;53.226;-1.296;2022-12-29T02:39:21;2;2;
73623;PMS5003;61921;53.226;-1.296;2022-12-29T02:41:48;4;1;
73623;PMS5003;61921;53.226;-1.296;2022-12-29T02:44:12;4;2;
73623;PMS5003;61921;53.226;-1.296;2022-12-29T02:46:36;4;2;
73623;PMS5003;61921;53.226;-1.296;2022-12-29T02:49:03;4;2;
73623;PMS5003;61921;53.226;-1.296;2022-12-29T02:51:27;6;3;
73623;PMS5003;61921;53.226;-1.296;2022-12-29T02:53:52;2;2;
73623;PMS5003;61921;53.226;-1.296;2022-12-29T02:56:18;4;2;
73623;PMS5003;61921;53.226;-1.296;2022-12-29T02:58:43;4;2;
73623;PMS5003;61921;53.226;-1.296;2022-12-29T03:01:16;0;0;
73623;PMS5003;61921;53.226;-1.296;2022-12-29T03:03:38;2;0;
73623;PMS5003;61921;53.226;-1.296;2022-12-29T03:06:04;0;0;
73623;PMS5003;61921;53.226;-1.296;2022-12-29T03:08:28;0;0;
73623;PMS5003;61921;53.226;-1.296;2022-12-29T03:10:52;0;0;
73623;PMS5003;61921;53.226;-1.296;2022-12-29T03:13:20;0;0;
73623;PMS5003;61921;53.226;-1.296;2022-12-29T03:15:43;0;0;
73623;PMS5003;61921;53.226;-1.296;2022-12-29T03:18:09;0;0;
73623;PMS5003;61921;53.226;-1.296;2022-12-29T03:20:35;0;0;
73623;PMS5003;61921;53.226;-1.296;2022-12-29T03:22:59;0;0;
73623;PMS5003;61921;53.226;-1.296;2022-12-29T03:25:25;0;0;
73623;PMS5003;61921;53.226;-1.296;2022-12-29T03:27:50;0;0;
73623;PMS5003;61921;53.226;-1.296;2022-12-29T03:30:15;0;0;
73623;PMS5003;61921;53.226;-1.296;2022-12-29T03:32:42;0;0;
73623;PMS5003;61921;53.226;-1.296;2022-12-29T03:35:06;0;0;
73623;PMS5003;61921;53.226;-1.296;2022-12-29T03:37:33;0;0;
73623;PMS5003;61921;53.226;-1.296;2022-12-29T03:39:57;0;0;
73623;PMS5003;61921;53.226;-1.296;2022-12-29T03:42:23;0;0;
73623;PMS5003;61921;53.226;-1.296;2022-12-29T03:44:48;0;0;
73623;PMS5003;61921;53.226;-1.296;2022-12-29T03:47:14;0;0;
73623;PMS5003;61921;53.226;-1.296;2022-12-29T03:49:39;0;0;
73623;PMS5003;61921;53.226;-1.296;2022-12-29T03:52:05;2;0;
73623;PMS5003;61921;53.226;-1.296;2022-12-29T03:54:30;0;0;
73623;PMS5003;61921;53.226;-1.296;2022-12-29T03:56:56;0;0;
73623;PMS5003;61921;53.226;-1.296;2022-12-29T03:59:21;0;0;
73623;PMS5003;61921;53.226;-1.296;2022-12-29T04:01:47;0;0;
73623;PMS5003;61921;53.226;-1.296;2022-12-29T04:04:12;1;1;
73623;PMS5003;61921;53.226;-1.296;2022-12-29T04:06:38;3;2;
73623;PMS5003;61921;53.226;-1.296;2022-12-29T04:09:03;1;0;
73623;PMS5003;61921;53.226;-1.296;2022-12-29T04:11:29;1;1;
73623;PMS5003;61921;53.226;-1.296;2022-12-29T04:13:54;2;1;
73623;PMS5003;61921;53.226;-1.296;2022-12-29T04:16:20;1;1;
73623;PMS5003;61921;53.226;-1.296;2022-12-29T04:18:45;1;1;
73623;PMS5003;61921;53.226;-1.296;2022-12-29T04:21:11;0;0;
73623;PMS5003;61921;53.226;-1.296;2022-12-29T04:23:37;0;0;
73623;PMS5003;61921;53.226;-1.296;2022-12-29T04:26:02;0;0;
73623;PMS5003;61921;53.226;-1.296;2022-12-29T04:28:27;1;1;
73623;PMS5003;61921;53.226;-1.296;2022-12-29T04:30:53;0;0;
73623;PMS5003;61921;53.226;-1.296;2022-12-29T04:33:19;1;1;
73623;PMS5003;61921;53.226;-1.296;2022-12-29T04:35:44;1;1;
73623;PMS5003;61921;53.226;-1.296;2022-12-29T04:38:09;4;2;
73623;PMS5003;61921;53.226;-1.296;2022-12-29T04:40:35;1;1;
73623;PMS5003;61921;53.226;-1.296;2022-12-29T04:43:00;0;0;
73623;PMS5003;61921;53.226;-1.296;2022-12-29T04:45:26;1;1;
73623;PMS5003;61921;53.226;-1.296;2022-12-29T04:47:51;1;1;
73623;PMS5003;61921;53.226;-1.296;2022-12-29T04:50:17;0;0;
73623;PMS5003;61921;53.226;-1.296;2022-12-29T04:52:42;1;0;
73623;PMS5003;61921;53.226;-1.296;2022-12-29T04:55:08;2;1;
73623;PMS5003;61921;53.226;-1.296;2022-12-29T04:57:33;1;0;
73623;PMS5003;61921;53.226;-1.296;2022-12-29T04:59:59;1;1;
73623;PMS5003;61921;53.226;-1.296;2022-12-29T05:02:24;2;1;
73623;PMS5003;61921;53.226;-1.296;2022-12-29T05:04:50;0;0;
73623;PMS5003;61921;53.226;-1.296;2022-12-29T05:07:15;0;0;
73623;PMS5003;61921;53.226;-1.296;2022-12-29T05:09:41;1;1;
73623;PMS5003;61921;53.226;-1.296;2022-12-29T05:12:06;0;0;
73623;PMS5003;61921;53.226;-1.296;2022-12-29T05:14:32;0;0;
73623;PMS5003;61921;53.226;-1.296;2022-12-29T05:16:57;0;0;
73623;PMS5003;61921;53.226;-1.296;2022-12-29T05:19:23;0;0;
73623;PMS5003;61921;53.226;-1.296;2022-12-29T05:21:48;0;0;
73623;PMS5003;61921;53.226;-1.296;2022-12-29T05:24:14;1;1;
73623;PMS5003;61921;53.226;-1.296;2022-12-29T05:26:39;0;0;
73623;PMS5003;61921;53.226;-1.296;2022-12-29T05:29:04;0;0;
73623;PMS5003;61921;53.226;-1.296;2022-12-29T05:31:30;1;1;
73623;PMS5003;61921;53.226;-1.296;2022-12-29T05:33:56;1;1;
73623;PMS5003;61921;53.226;-1.296;2022-12-29T05:36:21;0;0;
73623;PMS5003;61921;53.226;-1.296;2022-12-29T05:38:46;0;0;
73623;PMS5003;61921;53.226;-1.296;2022-12-29T05:41:12;1;0;
73623;PMS5003;61921;53.226;-1.296;2022-12-29T05:43:37;3;1;
73623;PMS5003;61921;53.226;-1.296;2022-12-29T05:46:03;1;1;
73623;PMS5003;61921;53.226;-1.296;2022-12-29T05:48:28;4;3;
73623;PMS5003;61921;53.226;-1.296;2022-12-29T05:50:54;0;0;
73623;PMS5003;61921;53.226;-1.296;2022-12-29T05:53:19;2;0;
73623;PMS5003;61921;53.226;-1.296;2022-12-29T05:55:46;0;0;
73623;PMS5003;61921;53.226;-1.296;2022-12-29T05:58:10;1;1;
73623;PMS5003;61921;53.226;-1.296;2022-12-29T06:00:36;1;0;
73623;PMS5003;61921;53.226;-1.296;2022-12-29T06:03:01;1;1;
73623;PMS5003;61921;53.226;-1.296;2022-12-29T06:05:27;2;1;
73623;PMS5003;61921;53.226;-1.296;2022-12-29T06:07:52;1;1;
73623;PMS5003;61921;53.226;-1.296;2022-12-29T06:10:18;2;1;
73623;PMS5003;61921;53.226;-1.296;2022-12-29T06:12:43;1;1;
73623;PMS5003;61921;53.226;-1.296;2022-12-29T06:15:09;0;0;
73623;PMS5003;61921;53.226;-1.296;2022-12-29T06:17:34;0;0;
73623;PMS5003;61921;53.226;-1.296;2022-12-29T06:19:59;1;0;
73623;PMS5003;61921;53.226;-1.296;2022-12-29T06:22:25;1;1;
73623;PMS5003;61921;53.226;-1.296;2022-12-29T06:24:50;0;0;
73623;PMS5003;61921;53.226;-1.296;2022-12-29T06:27:16;0;0;
73623;PMS5003;61921;53.226;-1.296;2022-12-29T06:29:41;1;1;
73623;PMS5003;61921;53.226;-1.296;2022-12-29T06:32:07;1;0;
73623;PMS5003;61921;53.226;-1.296;2022-12-29T06:34:32;1;1;
73623;PMS5003;61921;53.226;-1.296;2022-12-29T06:36:58;1;1;
73623;PMS5003;61921;53.226;-1.296;2022-12-29T06:39:23;1;1;
73623;PMS5003;61921;53.226;-1.296;2022-12-29T06:41:51;1;1;
73623;PMS5003;61921;53.226;-1.296;2022-12-29T06:44:15;1;1;
73623;PMS5003;61921;53.226;-1.296;2022-12-29T06:46:40;1;1;
73623;PMS5003;61921;53.226;-1.296;2022-12-29T06:49:05;1;1;
73623;PMS5003;61921;53.226;-1.296;2022-12-29T06:51:31;0;0;
73623;PMS5003;61921;53.226;-1.296;2022-12-29T06:53:56;2;1;
73623;PMS5003;61921;53.226;-1.296;2022-12-29T06:56:22;2;1;
73623;PMS5003;61921;53.226;-1.296;2022-12-29T06:58:47;2;1;
73623;PMS5003;61921;53.226;-1.296;2022-12-29T07:01:13;1;0;
73623;PMS5003;61921;53.226;-1.296;2022-12-29T07:03:38;1;1;
73623;PMS5003;61921;53.226;-1.296;2022-12-29T07:06:04;1;1;
73623;PMS5003;61921;53.226;-1.296;2022-12-29T07:08:29;1;1;
73623;PMS5003;61921;53.226;-1.296;2022-12-29T07:10:55;1;1;
73623;PMS5003;61921;53.226;-1.296;2022-12-29T07:13:20;2;0;
73623;PMS5003;61921;53.226;-1.296;2022-12-29T07:15:46;2;0;
73623;PMS5003;61921;53.226;-1.296;2022-12-29T07:18:11;1;1;
73623;PMS5003;61921;53.226;-1.296;2022-12-29T07:20:37;0;0;
73623;PMS5003;61921;53.226;-1.296;2022-12-29T07:23:02;1;0;
73623;PMS5003;61921;53.226;-1.296;2022-12-29T07:25:28;2;1;
73623;PMS5003;61921;53.226;-1.296;2022-12-29T07:27:53;2;0;
73623;PMS5003;61921;53.226;-1.296;2022-12-29T07:30:19;0;0;
73623;PMS5003;61921;53.226;-1.296;2022-12-29T07:32:44;2;0;
73623;PMS5003;61921;53.226;-1.296;2022-12-29T07:35:10;2;0;
73623;PMS5003;61921;53.226;-1.296;2022-12-29T07:37:35;0;0;
73623;PMS5003;61921;53.226;-1.296;2022-12-29T07:40:01;2;1;
73623;PMS5003;61921;53.226;-1.296;2022-12-29T07:42:26;1;1;
73623;PMS5003;61921;53.226;-1.296;2022-12-29T07:44:52;0;0;
73623;PMS5003;61921;53.226;-1.296;2022-12-29T07:47:17;0;0;
73623;PMS5003;61921;53.226;-1.296;2022-12-29T07:49:43;0;0;
73623;PMS5003;61921;53.226;-1.296;2022-12-29T07:52:09;2;0;
73623;PMS5003;61921;53.226;-1.296;2022-12-29T07:54:34;0;0;
73623;PMS5003;61921;53.226;-1.296;2022-12-29T07:56:59;1;1;
73623;PMS5003;61921;53.226;-1.296;2022-12-29T07:59:25;2;1;
73623;PMS5003;61921;53.226;-1.296;2022-12-29T08:01:50;1;1;
73623;PMS5003;61921;53.226;-1.296;2022-12-29T08:04:16;1;0;
73623;PMS5003;61921;53.226;-1.296;2022-12-29T08:06:41;2;1;
73623;PMS5003;61921;53.226;-1.296;2022-12-29T08:09:07;1;1;
73623;PMS5003;61921;53.226;-1.296;2022-12-29T08:11:32;2;1;
73623;PMS5003;61921;53.226;-1.296;2022-12-29T08:13:58;0;0;
73623;PMS5003;61921;53.226;-1.296;2022-12-29T08:16:23;2;1;
73623;PMS5003;61921;53.226;-1.296;2022-12-29T08:18:49;2;2;
73623;PMS5003;61921;53.226;-1.296;2022-12-29T08:21:15;0;0;
73623;PMS5003;61921;53.226;-1.296;2022-12-29T08:23:40;1;1;
73623;PMS5003;61921;53.226;-1.296;2022-12-29T08:26:05;2;0;
73623;PMS5003;61921;53.226;-1.296;2022-12-29T08:28:31;0;0;
73623;PMS5003;61921;53.226;-1.296;2022-12-29T08:30:56;1;1;
73623;PMS5003;61921;53.226;-1.296;2022-12-29T08:33:22;2;2;
73623;PMS5003;61921;53.226;-1.296;2022-12-29T08:35:47;2;2;
73623;PMS5003;61921;53.226;-1.296;2022-12-29T08:38:13;3;1;
73623;PMS5003;61921;53.226;-1.296;2022-12-29T08:40:38;2;2;
73623;PMS5003;61921;53.226;-1.296;2022-12-29T08:43:04;1;1;
73623;PMS5003;61921;53.226;-1.296;2022-12-29T08:45:29;1;0;
73623;PMS5003;61921;53.226;-1.296;2022-12-29T08:47:55;3;2;
73623;PMS5003;61921;53.226;-1.296;2022-12-29T08:50:20;1;1;
73623;PMS5003;61921;53.226;-1.296;2022-12-29T08:52:46;2;2;
73623;PMS5003;61921;53.226;-1.296;2022-12-29T08:55:12;3;2;
73623;PMS5003;61921;53.226;-1.296;2022-12-29T08:57:37;2;1;
73623;PMS5003;61921;53.226;-1.296;2022-12-29T09:00:03;4;3;
73623;PMS5003;61921;53.226;-1.296;2022-12-29T09:02:28;1;1;
73623;PMS5003;61921;53.226;-1.296;2022-12-29T09:04:53;1;1;
73623;PMS5003;61921;53.226;-1.296;2022-12-29T09:07:19;3;2;
73623;PMS5003;61921;53.226;-1.296;2022-12-29T09:09:44;2;1;
73623;PMS5003;61921;53.226;-1.296;2022-12-29T09:12:10;2;2;
73623;PMS5003;61921;53.226;-1.296;2022-12-29T09:14:36;1;1;
73623;PMS5003;61921;53.226;-1.296;2022-12-29T09:17:01;2;0;
73623;PMS5003;61921;53.226;-1.296;2022-12-29T09:19:27;3;2;
73623;PMS5003;61921;53.226;-1.296;2022-12-29T09:21:52;2;2;
73623;PMS5003;61921;53.226;-1.296;2022-12-29T09:24:17;1;1;
73623;PMS5003;61921;53.226;-1.296;2022-12-29T09:26:43;1;1;
73623;PMS5003;61921;53.226;-1.296;2022-12-29T09:29:08;2;2;
73623;PMS5003;61921;53.226;-1.296;2022-12-29T09:31:34;2;2;
73623;PMS5003;61921;53.226;-1.296;2022-12-29T09:33:59;0;0;
73623;PMS5003;61921;53.226;-1.296;2022-12-29T09:36:25;3;1;
73623;PMS5003;61921;53.226;-1.296;2022-12-29T09:38:50;0;0;
73623;PMS5003;61921;53.226;-1.296;2022-12-29T09:41:18;1;0;
73623;PMS5003;61921;53.226;-1.296;2022-12-29T09:43:45;1;1;
73623;PMS5003;61921;53.226;-1.296;2022-12-29T09:46:08;1;1;
73623;PMS5003;61921;53.226;-1.296;2022-12-29T09:48:33;2;1;
73623;PMS5003;61921;53.226;-1.296;2022-12-29T09:50:59;4;0;
73623;PMS5003;61921;53.226;-1.296;2022-12-29T09:53:24;4;3;
73623;PMS5003;61921;53.226;-1.296;2022-12-29T09:55:49;4;1;
73623;PMS5003;61921;53.226;-1.296;2022-12-29T09:58:15;4;1;
73623;PMS5003;61921;53.226;-1.296;2022-12-29T10:00:43;1;1;
73623;PMS5003;61921;53.226;-1.296;2022-12-29T10:03:05;2;2;
73623;PMS5003;61921;53.226;-1.296;2022-12-29T10:05:33;1;1;
73623;PMS5003;61921;53.226;-1.296;2022-12-29T10:08:00;1;1;
73623;PMS5003;61921;53.226;-1.296;2022-12-29T10:10:26;1;1;
73623;PMS5003;61921;53.226;-1.296;2022-12-29T10:12:51;3;1;
73623;PMS5003;61921;53.226;-1.296;2022-12-29T10:15:13;2;2;
73623;PMS5003;61921;53.226;-1.296;2022-12-29T10:17:39;2;2;
73623;PMS5003;61921;53.226;-1.296;2022-12-29T10:22:33;3;3;
73623;PMS5003;61921;53.226;-1.296;2022-12-29T10:24:54;3;2;
73623;PMS5003;61921;53.226;-1.296;2022-12-29T10:27:20;1;1;
73623;PMS5003;61921;53.226;-1.296;2022-12-29T10:29:48;4;3;
73623;PMS5003;61921;53.226;-1.296;2022-12-29T10:32:13;1;1;
73623;PMS5003;61921;53.226;-1.296;2022-12-29T10:34:37;1;1;
73623;PMS5003;61921;53.226;-1.296;2022-12-29T10:37:02;2;2;
73623;PMS5003;61921;53.226;-1.296;2022-12-29T10:39:28;2;2;
73623;PMS5003;61921;53.226;-1.296;2022-12-29T10:41:54;4;4;
73623;PMS5003;61921;53.226;-1.296;2022-12-29T10:44:18;3;3;
73623;PMS5003;61921;53.226;-1.296;2022-12-29T10:46:43;3;2;
73623;PMS5003;61921;53.226;-1.296;2022-12-29T10:49:12;5;2;
73623;PMS5003;61921;53.226;-1.296;2022-12-29T10:51:36;2;2;
73623;PMS5003;61921;53.226;-1.296;2022-12-29T10:54:01;2;1;
73623;PMS5003;61921;53.226;-1.296;2022-12-29T10:56:29;2;1;
73623;PMS5003;61921;53.226;-1.296;2022-12-29T10:58:51;5;4;
73623;PMS5003;61921;53.226;-1.296;2022-12-29T11:01:16;1;1;
73623;PMS5003;61921;53.226;-1.296;2022-12-29T11:03:46;2;2;
73623;PMS5003;61921;53.226;-1.296;2022-12-29T11:06:07;1;1;
73623;PMS5003;61921;53.226;-1.296;2022-12-29T11:08:33;2;2;
73623;PMS5003;61921;53.226;-1.296;2022-12-29T11:10:59;4;2;
73623;PMS5003;61921;53.226;-1.296;2022-12-29T11:13:24;4;3;
73623;PMS5003;61921;53.226;-1.296;2022-12-29T11:15:49;6;3;
73623;PMS5003;61921;53.226;-1.296;2022-12-29T11:18:18;4;1;
73623;PMS5003;61921;53.226;-1.296;2022-12-29T11:20:40;2;2;
73623;PMS5003;61921;53.226;-1.296;2022-12-29T11:23:21;3;3;
73623;PMS5003;61921;53.226;-1.296;2022-12-29T11:25:30;5;3;
73623;PMS5003;61921;53.226;-1.296;2022-12-29T11:27:58;4;2;
73623;PMS5003;61921;53.226;-1.296;2022-12-29T11:30:22;3;3;
73623;PMS5003;61921;53.226;-1.296;2022-12-29T11:32:50;6;1;
73623;PMS5003;61921;53.226;-1.296;2022-12-29T11:35:17;5;2;
73623;PMS5003;61921;53.226;-1.296;2022-12-29T11:37:38;5;2;
73623;PMS5003;61921;53.226;-1.296;2022-12-29T11:40:04;3;3;
73623;PMS5003;61921;53.226;-1.296;2022-12-29T11:42:32;2;2;
73623;PMS5003;61921;53.226;-1.296;2022-12-29T11:44:54;3;2;
73623;PMS5003;61921;53.226;-1.296;2022-12-29T11:47:21;6;4;
73623;PMS5003;61921;53.226;-1.296;2022-12-29T11:49:48;4;3;
73623;PMS5003;61921;53.226;-1.296;2022-12-29T11:52:10;5;2;
73623;PMS5003;61921;53.226;-1.296;2022-12-29T11:54:36;3;2;
73623;PMS5003;61921;53.226;-1.296;2022-12-29T12:01:53;6;3;
73623;PMS5003;61921;53.226;-1.296;2022-12-29T12:04:18;9;3;
73623;PMS5003;61921;53.226;-1.296;2022-12-29T12:06:44;2;2;
73623;PMS5003;61921;53.226;-1.296;2022-12-29T12:09:10;5;5;
73623;PMS5003;61921;53.226;-1.296;2022-12-29T12:11:34;3;2;
73623;PMS5003;61921;53.226;-1.296;2022-12-29T12:14:00;3;3;
73623;PMS5003;61921;53.226;-1.296;2022-12-29T12:16:26;3;2;
73623;PMS5003;61921;53.226;-1.296;2022-12-29T12:18:51;0;0;
73623;PMS5003;61921;53.226;-1.296;2022-12-29T12:21:20;3;1;
73623;PMS5003;61921;53.226;-1.296;2022-12-29T12:23:54;4;2;
73623;PMS5003;61921;53.226;-1.296;2022-12-29T12:26:09;6;1;
73623;PMS5003;61921;53.226;-1.296;2022-12-29T12:28:34;3;3;
73623;PMS5003;61921;53.226;-1.296;2022-12-29T12:30:57;4;3;
73623;PMS5003;61921;53.226;-1.296;2022-12-29T12:33:24;4;2;
73623;PMS5003;61921;53.226;-1.296;2022-12-29T12:35:51;4;1;
73623;PMS5003;61921;53.226;-1.296;2022-12-29T12:38:16;2;2;
73623;PMS5003;61921;53.226;-1.296;2022-12-29T12:40:43;4;1;
73623;PMS5003;61921;53.226;-1.296;2022-12-29T12:43:08;5;3;
73623;PMS5003;61921;53.226;-1.296;2022-12-29T12:45:34;6;3;
73623;PMS5003;61921;53.226;-1.296;2022-12-29T12:47:58;3;2;
73623;PMS5003;61921;53.226;-1.296;2022-12-29T12:50:27;2;1;
73623;PMS5003;61921;53.226;-1.296;2022-12-29T12:52:51;4;2;
73623;PMS5003;61921;53.226;-1.296;2022-12-29T12:57:40;2;1;
73623;PMS5003;61921;53.226;-1.296;2022-12-29T13:00:04;3;3;
73623;PMS5003;61921;53.226;-1.296;2022-12-29T13:02:31;8;3;
73623;PMS5003;61921;53.226;-1.296;2022-12-29T13:04:58;6;2;
73623;PMS5003;61921;53.226;-1.296;2022-12-29T13:07:21;5;1;
73623;PMS5003;61921;53.226;-1.296;2022-12-29T13:09:47;3;3;
73623;PMS5003;61921;53.226;-1.296;2022-12-29T13:12:13;7;3;
73623;PMS5003;61921;53.226;-1.296;2022-12-29T13:14:39;1;1;
73623;PMS5003;61921;53.226;-1.296;2022-12-29T13:17:02;2;1;
73623;PMS5003;61921;53.226;-1.296;2022-12-29T13:19:27;4;2;
73623;PMS5003;61921;53.226;-1.296;2022-12-29T13:21:55;3;3;
73623;PMS5003;61921;53.226;-1.296;2022-12-29T13:24:19;6;3;
73623;PMS5003;61921;53.226;-1.296;2022-12-29T13:26:44;4;2;
73623;PMS5003;61921;53.226;-1.296;2022-12-29T13:29:12;1;1;
73623;PMS5003;61921;53.226;-1.296;2022-12-29T13:31:36;2;2;
73623;PMS5003;61921;53.226;-1.296;2022-12-29T13:34:00;3;2;
73623;PMS5003;61921;53.226;-1.296;2022-12-29T13:36:25;6;4;
73623;PMS5003;61921;53.226;-1.296;2022-12-29T13:38:51;3;1;
73623;PMS5003;61921;53.226;-1.296;2022-12-29T13:41:22;4;2;
73623;PMS5003;61921;53.226;-1.296;2022-12-29T13:43:42;5;3;
73623;PMS5003;61921;53.226;-1.296;2022-12-29T13:46:07;8;4;
73623;PMS5003;61921;53.226;-1.296;2022-12-29T13:48:35;4;3;
73623;PMS5003;61921;53.226;-1.296;2022-12-29T13:50:58;6;3;
73623;PMS5003;61921;53.226;-1.296;2022-12-29T13:53:24;7;4;
73623;PMS5003;61921;53.226;-1.296;2022-12-29T13:55:49;9;5;
73623;PMS5003;61921;53.226;-1.296;2022-12-29T13:58:15;6;6;
73623;PMS5003;61921;53.226;-1.296;2022-12-29T14:00:43;5;5;
73623;PMS5003;61921;53.226;-1.296;2022-12-29T14:03:16;4;4;
73623;PMS5003;61921;53.226;-1.296;2022-12-29T14:05:31;3;3;
73623;PMS5003;61921;53.226;-1.296;2022-12-29T14:07:57;7;4;
73623;PMS5003;61921;53.226;-1.296;2022-12-29T14:10:26;5;5;
73623;PMS5003;61921;53.226;-1.296;2022-12-29T14:12:46;3;3;
73623;PMS5003;61921;53.226;-1.296;2022-12-29T14:15:15;5;4;
73623;PMS5003;61921;53.226;-1.296;2022-12-29T14:17:37;5;3;
73623;PMS5003;61921;53.226;-1.296;2022-12-29T14:20:03;5;4;
73623;PMS5003;61921;53.226;-1.296;2022-12-29T14:22:28;4;3;
73623;PMS5003;61921;53.226;-1.296;2022-12-29T14:24:53;5;4;
73623;PMS5003;61921;53.226;-1.296;2022-12-29T14:29:45;5;5;
73623;PMS5003;61921;53.226;-1.296;2022-12-29T14:34:38;9;5;
73623;PMS5003;61921;53.226;-1.296;2022-12-29T14:37:01;3;2;
73623;PMS5003;61921;53.226;-1.296;2022-12-29T14:39:29;3;3;
73623;PMS5003;61921;53.226;-1.296;2022-12-29T14:44:17;3;2;
73623;PMS5003;61921;53.226;-1.296;2022-12-29T14:46:44;2;2;
73623;PMS5003;61921;53.226;-1.296;2022-12-29T14:49:08;5;4;
73623;PMS5003;61921;53.226;-1.296;2022-12-29T14:51:34;5;2;
73623;PMS5003;61921;53.226;-1.296;2022-12-29T14:53:58;7;4;
73623;PMS5003;61921;53.226;-1.296;2022-12-29T14:56:25;3;3;
73623;PMS5003;61921;53.226;-1.296;2022-12-29T14:58:50;5;3;
73623;PMS5003;61921;53.226;-1.296;2022-12-29T15:01:18;5;2;
73623;PMS5003;61921;53.226;-1.296;2022-12-29T15:03:43;2;1;
73623;PMS5003;61921;53.226;-1.296;2022-12-29T15:06:06;7;4;
73623;PMS5003;61921;53.226;-1.296;2022-12-29T15:08:32;6;2;
73623;PMS5003;61921;53.226;-1.296;2022-12-29T15:10:58;5;1;
73623;PMS5003;61921;53.226;-1.296;2022-12-29T15:13:23;7;3;
73623;PMS5003;61921;53.226;-1.296;2022-12-29T15:15:48;3;3;
73623;PMS5003;61921;53.226;-1.296;2022-12-29T15:18:18;4;2;
73623;PMS5003;61921;53.226;-1.296;2022-12-29T15:20:39;4;3;
73623;PMS5003;61921;53.226;-1.296;2022-12-29T15:23:08;3;1;
73623;PMS5003;61921;53.226;-1.296;2022-12-29T15:25:30;2;0;
73623;PMS5003;61921;53.226;-1.296;2022-12-29T15:27:57;3;1;
73623;PMS5003;61921;53.226;-1.296;2022-12-29T15:30:21;2;2;
73623;PMS5003;61921;53.226;-1.296;2022-12-29T15:32:47;3;2;
73623;PMS5003;61921;53.226;-1.296;2022-12-29T15:37:37;3;2;
73623;PMS5003;61921;53.226;-1.296;2022-12-29T15:40:03;4;2;
73623;PMS5003;61921;53.226;-1.296;2022-12-29T15:42:38;6;4;
73623;PMS5003;61921;53.226;-1.296;2022-12-29T15:44:54;1;1;
73623;PMS5003;61921;53.226;-1.296;2022-12-29T15:47:19;3;2;
73623;PMS5003;61921;53.226;-1.296;2022-12-29T15:49:45;6;3;
73623;PMS5003;61921;53.226;-1.296;2022-12-29T15:52:10;3;3;
73623;PMS5003;61921;53.226;-1.296;2022-12-29T15:54:35;2;2;
73623;PMS5003;61921;53.226;-1.296;2022-12-29T15:57:01;6;4;
73623;PMS5003;61921;53.226;-1.296;2022-12-29T15:59:26;14;11;
73623;PMS5003;61921;53.226;-1.296;2022-12-29T16:01:51;23;20;
73623;PMS5003;61921;53.226;-1.296;2022-12-29T16:04:16;9;9;
73623;PMS5003;61921;53.226;-1.296;2022-12-29T16:06:44;13;13;
73623;PMS5003;61921;53.226;-1.296;2022-12-29T16:09:14;9;7;
73623;PMS5003;61921;53.226;-1.296;2022-12-29T16:11:33;16;11;
73623;PMS5003;61921;53.226;-1.296;2022-12-29T16:13:58;10;7;
73623;PMS5003;61921;53.226;-1.296;2022-12-29T16:16:25;8;7;
73623;PMS5003;61921;53.226;-1.296;2022-12-29T16:18:50;5;5;
73623;PMS5003;61921;53.226;-1.296;2022-12-29T16:21:16;7;4;
73623;PMS5003;61921;53.226;-1.296;2022-12-29T16:23:40;5;5;
73623;PMS5003;61921;53.226;-1.296;2022-12-29T16:26:10;6;3;
73623;PMS5003;61921;53.226;-1.296;2022-12-29T16:28:34;3;3;
73623;PMS5003;61921;53.226;-1.296;2022-12-29T16:30:57;3;3;
73623;PMS5003;61921;53.226;-1.296;2022-12-29T16:33:35;9;7;
73623;PMS5003;61921;53.226;-1.296;2022-12-29T16:35:48;8;5;
73623;PMS5003;61921;53.226;-1.296;2022-12-29T16:38:14;2;2;
73623;PMS5003;61921;53.226;-1.296;2022-12-29T16:48:09;4;3;
73623;PMS5003;61921;53.226;-1.296;2022-12-29T16:50:21;6;5;
73623;PMS5003;61921;53.226;-1.296;2022-12-29T16:52:47;5;4;
73623;PMS5003;61921;53.226;-1.296;2022-12-29T16:55:15;5;3;